IW4EGP-3 Weather Reports


Display with metric or nautical units.
time (UTC)temp
F
wind
direction
speed
MPH
gust
MPH
rain 1hr
in
rain 24hr
in
rain mn
in
humidity
%
barometer
mb
20190919204711 67 74 3.0 7.0 0.00 0.00 0.00 79 1017.3
20190919203811 68 74 3.0 8.0 0.00 0.00 0.00 78 1017.3
20190919202911 68 73 5.0 12.0 0.00 0.00 0.00 77 1017.2
20190919202011 68 67 4.0 12.0 0.00 0.00 0.00 76 1017.1
20190919201111 68 54 6.0 11.0 0.00 0.00 0.00 76 1017.1
20190919200211 68 44 6.0 14.0 0.00 0.00 0.00 77 1017.1
20190919195311 68 43 6.0 12.0 0.00 0.00 0.00 78 1017.0
20190919194410 68 62 5.0 11.0 0.00 0.00 0.00 78 1016.8
20190919193511 68 46 4.0 9.0 0.00 0.00 0.00 78 1016.7
20190919192611 68 70 4.0 8.0 0.00 0.00 0.00 78 1016.8
20190919191711 68 70 3.0 10.0 0.00 0.00 0.00 79 1016.5
20190919190811 69 48 4.0 10.0 0.00 0.00 0.00 78 1016.5
20190919185911 69 64 4.0 9.0 0.00 0.00 0.00 77 1016.2
20190919185011 69 61 3.0 7.0 0.00 0.00 0.00 77 1016.3
20190919184111 69 62 4.0 11.0 0.00 0.00 0.00 76 1016.1
20190919183211 69 53 4.0 9.0 0.00 0.00 0.00 75 1016.1
20190919182311 69 73 5.0 10.0 0.00 0.00 0.00 75 1015.8
20190919181411 69 56 6.0 11.0 0.00 0.00 0.00 76 1015.7
20190919180511 69 50 7.0 11.0 0.00 0.00 0.00 75 1015.6
20190919175611 69 56 6.0 12.0 0.00 0.00 0.00 75 1015.5
20190919174710 69 55 5.0 12.0 0.00 0.00 0.00 77 1015.4
20190919173811 69 48 5.0 11.0 0.00 0.00 0.00 76 1015.5
20190919172911 69 65 6.0 13.0 0.00 0.00 0.00 75 1015.1
20190919172011 69 60 6.0 13.0 0.00 0.00 0.00 73 1015.1
20190919171110 69 75 7.0 16.0 0.00 0.00 0.00 73 1014.8
20190919170210 70 77 5.0 10.0 0.00 0.00 0.00 76 1014.6
20190919165311 70 50 5.0 11.0 0.00 0.00 0.00 75 1014.6
20190919164411 70 58 6.0 11.0 0.00 0.00 0.00 74 1014.6
20190919163511 71 58 4.0 11.0 0.00 0.00 0.00 72 1014.5
20190919162610 72 48 4.0 10.0 0.00 0.00 0.00 71 1014.5
20190919161711 72 58 5.0 13.0 0.00 0.00 0.00 72 1014.3
20190919160810 72 86 2.0 8.0 0.00 0.00 0.00 73 1014.2
20190919155910 71 45 3.0 10.0 0.00 0.00 0.00 71 1014.3
20190919155011 72 16 3.0 8.0 0.00 0.00 0.00 72 1014.1
20190919154110 72 28 3.0 11.0 0.00 0.00 0.00 70 1014.1
20190919153210 73 72 3.0 10.0 0.00 0.00 0.00 69 1014.0
20190919152311 73 24 5.0 12.0 0.00 0.00 0.00 69 1014.1
20190919151411 72 352 5.0 12.0 0.00 0.00 0.00 70 1014.1
20190919150510 72 285 4.0 9.0 0.00 0.00 0.00 72 1014.2
20190919145611 72 60 5.0 12.0 0.00 0.00 0.00 71 1014.1
20190919144711 73 66 3.0 10.0 0.00 0.00 0.00 73 1014.1
20190919143811 73 49 4.0 12.0 0.00 0.00 0.00 72 1014.1
20190919142910 74 66 3.0 11.0 0.00 0.00 0.00 71 1014.0
20190919142010 73 37 3.0 12.0 0.00 0.00 0.00 77 1014.0
20190919141110 72 35 4.0 10.0 0.00 0.00 0.00 77 1014.0
20190919140210 72 56 5.0 14.0 0.00 0.05 0.00 79 1013.8
20190919135310 73 60 4.0 10.0 0.00 0.15 0.00 81 1013.7
20190919134410 72 10 4.0 10.0 0.00 0.20 0.00 82 1013.7
20190919133510 72 55 3.0 10.0 0.00 0.25 0.00 84 1013.8
20190919132610 72 26 3.0 11.0 0.00 0.32 0.00 86 1013.9
20190919131710 72 341 4.0 10.0 0.00 0.34 0.00 85 1013.9
20190919130810 71 120 2.0 8.0 0.00 0.34 0.00 90 1014.0
20190919125910 70 59 4.0 9.0 0.00 0.34 0.00 92 1013.8
20190919125010 69 54 5.0 10.0 0.00 0.34 0.00 92 1014.0
20190919124110 69 54 4.0 11.0 0.00 0.34 0.00 95 1013.9
20190919123210 69 64 3.0 11.0 0.00 0.34 0.00 99 1014.1
20190919122310 69 60 4.0 10.0 0.00 0.34 0.00 99 1013.9
20190919121410 69 59 4.0 9.0 0.00 0.34 0.00 99 1014.0
20190919120510 68 63 2.0 11.0 0.00 0.34 0.00 99 1013.9
20190919115610 68 78 2.0 11.0 0.00 0.34 0.00 99 1013.9
20190919114710 68 86 1.0 6.0 0.00 0.37 0.00 99 1014.0
20190919113810 67 138 0.0 3.0 0.00 0.37 0.00 99 1013.8
20190919112910 67 135 0.0 3.0 0.00 0.37 0.00 99 1014.0
20190919112010 67 115 0.0 5.0 0.00 0.37 0.00 99 1013.9
20190919111110 66 135 1.0 4.0 0.00 0.37 0.00 99 1014.0
20190919110210 65 113 3.0 6.0 0.00 0.37 0.00 99 1014.0
20190919105311 65 95 3.0 12.0 0.00 0.37 0.00 99 1013.8
20190919104410 64 90 6.0 12.0 0.00 0.37 0.00 99 1013.8
20190919103510 65 80 6.0 11.0 0.00 0.37 0.00 99 1013.7
20190919102610 65 60 6.0 15.0 0.00 0.37 0.00 99 1013.6
20190919101710 65 55 9.0 19.0 0.00 0.37 0.00 99 1013.5
20190919100810 65 66 8.0 19.0 0.00 0.37 0.00 99 1013.4
20190919095910 65 59 7.0 18.0 0.00 0.37 0.00 99 1013.4
20190919095011 65 50 7.0 16.0 0.00 0.37 0.00 99 1013.3
20190919094110 65 60 7.0 16.0 0.00 0.37 0.00 99 1013.2
20190919093210 66 60 7.0 15.0 0.00 0.37 0.00 99 1013.2
20190919092310 66 53 7.0 14.0 0.00 0.37 0.00 99 1013.0
20190919091410 67 57 6.0 14.0 0.00 0.37 0.00 99 1012.9
20190919090510 67 94 0.0 6.0 0.00 0.37 0.00 99 1013.0
20190919085610 67 89 1.0 4.0 0.00 0.37 0.00 99 1012.8
20190919084710 68 90 0.0 4.0 0.00 0.37 0.00 99 1013.0
20190919083810 68 0 0.0 1.0 0.00 0.37 0.00 99 1012.8
20190919082910 68 40 0.0 3.0 0.00 0.37 0.00 99 1012.5
20190919082010 68 336 0.0 3.0 0.00 0.37 0.00 99 1012.5
20190919081110 68 163 0.0 3.0 0.00 0.37 0.00 99 1012.4
20190919080210 67 213 0.0 3.0 0.00 0.37 0.00 99 1012.1
20190919075310 67 217 1.0 4.0 0.00 0.37 0.00 99 1012.0
20190919074410 67 269 2.0 5.0 0.00 0.37 0.00 99 1012.0
20190919073510 67 260 1.0 6.0 0.00 0.37 0.00 99 1012.0
20190919072610 67 97 0.0 2.0 0.00 0.37 0.00 99 1012.2
20190919071710 67 0 0.0 1.0 0.00 0.37 0.00 99 1012.2
20190919070810 67 259 1.0 4.0 0.00 0.37 0.00 99 1011.9
20190919065910 66 211 2.0 6.0 0.00 0.37 0.00 99 1011.9
20190919065010 67 236 3.0 6.0 0.00 0.37 0.00 99 1011.8
20190919064110 67 230 3.0 6.0 0.00 0.37 0.00 99 1011.7
20190919063210 67 244 4.0 8.0 0.00 0.37 0.00 99 1011.6
20190919062310 67 244 4.0 7.0 0.00 0.37 0.00 99 1011.5
20190919061411 67 229 2.0 5.0 0.00 0.37 0.00 99 1011.5
20190919060510 67 0 0.0 2.0 0.00 0.37 0.00 99 1011.5
20190919055610 67 0 0.0 0.0 0.00 0.37 0.00 99 1011.5
20190919054710 67 0 0.0 1.0 0.00 0.37 0.00 99 1011.3
20190919053810 67 0 0.0 1.0 0.00 0.37 0.00 99 1011.2
20190919052910 67 0 0.0 0.0 0.00 0.37 0.00 99 1011.1
20190919052010 67 0 0.0 0.0 0.00 0.37 0.00 99 1011.0
20190919051110 67 181 0.0 2.0 0.00 0.37 0.00 99 1011.0
20190919050210 67 171 0.0 2.0 0.00 0.37 0.00 99 1011.1
20190919045310 67 0 0.0 1.0 0.00 0.37 0.00 99 1011.2
20190919044410 67 0 0.0 0.0 0.00 0.37 0.00 99 1011.3
20190919043510 67 0 0.0 1.0 0.00 0.37 0.00 99 1011.1
20190919042610 67 0 0.0 0.0 0.00 0.37 0.00 99 1011.1
20190919041710 67 140 0.0 2.0 0.00 0.37 0.00 99 1011.2
20190919040810 66 209 1.0 4.0 0.00 0.37 0.00 99 1011.2
20190919035910 67 143 1.0 3.0 0.00 0.37 0.00 99 1011.3
20190919035010 67 135 2.0 4.0 0.00 0.37 0.00 99 1011.3
20190919034110 67 141 3.0 4.0 0.00 0.37 0.00 99 1011.2
20190919033210 66 140 1.0 4.0 0.00 0.37 0.00 99 1011.1
20190919032310 66 135 0.0 2.0 0.00 0.37 0.00 99 1011.7
20190919031410 67 119 1.0 4.0 0.00 0.37 0.00 99 1011.3
20190919030510 67 131 1.0 3.0 0.00 0.37 0.00 99 1010.9
20190919025610 67 135 0.0 3.0 0.00 0.37 0.00 99 1011.4
20190919024710 67 101 0.0 3.0 0.00 0.37 0.00 99 1011.3
20190919023810 67 89 2.0 8.0 0.00 0.37 0.00 99 1011.2
20190919022910 67 94 3.0 8.0 0.00 0.37 0.00 99 1011.0
20190919022010 67 63 3.0 9.0 0.00 0.37 0.00 99 1010.7
20190919021110 67 92 4.0 9.0 0.00 0.37 0.00 99 1010.9
20190919020210 67 95 7.0 15.0 0.00 0.37 0.00 99 1010.5
20190919015310 67 87 6.0 13.0 0.00 0.37 0.00 99 1010.6
20190919014410 68 325 3.0 8.0 0.00 0.37 0.00 99 1011.5
20190919013510 68 45 1.0 4.0 0.00 0.37 0.00 99 1011.3
20190919012610 68 39 2.0 5.0 0.00 0.37 0.00 99 1011.0
20190919011710 69 103 1.0 4.0 0.00 0.37 0.00 99 1010.8
20190919010810 70 90 3.0 6.0 0.00 0.37 0.00 99 1011.0
20190919005910 71 98 4.0 8.0 0.00 0.37 0.00 99 1010.5
20190919005010 71 75 6.0 14.0 0.00 0.37 0.00 99 1010.6
20190919004110 71 66 6.0 14.0 0.00 0.37 0.00 99 1010.5
20190919003210 71 88 5.0 11.0 0.00 0.37 0.00 99 1010.7
20190919002310 72 93 5.0 11.0 0.00 0.37 0.00 99 1010.7
20190919001410 72 63 7.0 15.0 0.00 0.37 0.00 99 1010.8
20190919000511 72 67 10.0 18.0 0.00 0.37 0.00 99 1010.9
20190918235611 72 96 7.0 17.0 0.00 0.37 0.00 99 1010.7
20190918234711 72 87 8.0 16.0 0.00 0.37 0.00 99 1011.1
20190918233810 72 90 8.0 15.0 0.00 0.37 0.00 99 1011.1
20190918232913 72 86 8.0 14.0 0.00 0.37 0.00 99 1011.3
20190918232012 72 75 11.0 22.0 0.00 0.37 0.00 99 1011.1
20190918230211 71 87 10.0 20.0 0.00 0.37 0.00 99 1011.0
20190918225311 72 82 10.0 20.0 0.00 0.37 0.00 99 1010.9
20190918224410 72 85 9.0 18.0 0.00 0.37 0.00 99 1010.8
20190918223511 72 90 9.0 18.0 0.00 0.37 0.00 99 1011.0
20190918222611 72 84 9.0 16.0 0.00 0.37 0.00 99 1010.8
20190918221711 72 78 7.0 15.0 0.00 0.37 0.00 99 1010.8
20190918220812 72 90 4.0 7.0 0.00 0.37 0.00 99 1011.0
20190918215911 72 84 5.0 9.0 0.00 0.37 0.37 99 1010.9
20190918215010 72 85 6.0 11.0 0.00 0.37 0.37 99 1010.8
20190918214110 72 89 6.0 11.0 0.00 0.37 0.37 99 1011.0
20190918213210 72 90 7.0 14.0 0.00 0.37 0.37 99 1011.0
20190918212310 72 83 6.0 13.0 0.00 0.37 0.37 99 1010.9
20190918211411 72 80 6.0 11.0 0.00 0.37 0.37 99 1011.1
20190918210510 72 66 8.0 15.0 0.00 0.37 0.37 99 1010.8
20190918205610 72 84 8.0 15.0 0.00 0.37 0.37 99 1010.9